00:50
Airports
History
Links
Donate
Help keep this website running!
PayPal
Bitcoin
This page is community maintained. The information is intended for PC simulator navigation or reference.
Always use approved charts for navigation.
3AE
Ace Airpark
Ace Airpark (3AE)
Anderson, Indiana, United States (46013)
4
Lat/Lng:40° 2' 45.15" N / 85° 39' 59.91" W
40.045876 / -85.666643
Elevation:910'ft / 277mMSL
ID / ICAO:3AE
Runways:1
Longest:09-27
Grass 1,062m / 3,485ft
Nearby Weather17:55 GMT 2017-11-20
Nearby weather at KAID, Anderson Muni-darlington Field located 5.2 nautical miles from 3AE
Altimeter: 30.07
Visibility: 10.0 statute miles
Wind: 10 knots (from 190°)
Temp: 7°c / 45°f
Humidity: 75.6%

METAR: KAID 201755Z 19010G15KT 10SM CLR 07/03 A3007

(Powered by phpweather)
Nearby VORs <50NM
Nearby NDBs
Runway 09 / 27
Dimensions:1062.2 x 30.5m 3485' x 100'ft
Surface:Grass
Runway 09 [A]Runway 27 [B]
Heading:087°TH 267°TH
Lat:
Lng:
40° 2' 44.25"N
85° 40' 22.46"W
40° 2' 46.06"N
85° 39' 37.37"W
User Notes and Comments
40° 2' 45.15" N / 85° 39' 59.91" W
Distance To
Airport ID:
Nearby Airports
(R) Burk Personal Use 3.4 NM
34II E 84°
(R) North Lakeland 4.9 NM
IN31 WSW 250°
(C) Anderson Muni-darlington Field 5.2 NM
KAID ( WX ) NNE 33°
4 Stephenson 6.3 NM
IN32 SW 220°
(R) Sugar Creek Air Park 9.4 NM
II13 SSE 157°
4 Midkiff 10.5 NM
2IN5 E 101°
4 Pat Robinson 10.5 NM
66II W 268°
VFR Chart
Flight Planning at SkyVector.com